Time;durP1;ratioP1;P1;durP2;ratioP2;P2;SDS_P1;SDS_P2;PMS_P1;PMS_P2;Temp;Humidity;BMP_temperature;BMP_pressure;BME280_temperature;BME280_humidity;BME280_pressure;Samples;Min_cycle;Max_cycle;Signal;HPM_P1;HPM_P2
2021/12/05 00:22:32;;;;;;;18.75;3.60;;;7.60;99.90;;;;;;4895835;29;20422;-71
2021/12/05 00:25:00;;;;;;;16.30;5.90;;;7.70;99.90;;;;;;4891372;29;20032;-69
2021/12/05 00:27:35;;;;;;;18.05;3.47;;;7.80;99.90;;;;;;4895495;29;20040;-72
2021/12/05 00:43:38;;;;;;;14.20;2.38;;;7.80;99.90;;;;;;4891558;29;20577;-70
2021/12/05 01:16:54;;;;;;;18.88;3.15;;;6.90;99.90;;;;;;4843194;29;20042;-68
2021/12/05 01:19:22;;;;;;;15.77;3.35;;;7.00;99.90;;;;;;4841776;29;20038;-67
2021/12/05 01:21:53;;;;;;;19.85;3.70;;;7.10;99.90;;;;;;4841168;29;20523;-67
2021/12/05 01:29:57;;;;;;;19.50;3.05;;;7.80;99.90;;;;;;4895643;29;20040;-68
2021/12/05 01:35:24;;;;;;;19.05;3.40;;;7.90;99.90;;;;;;4882210;29;20073;-67
2021/12/05 01:43:53;;;;;;;18.83;3.30;;;8.30;99.90;;;;;;4890599;29;20100;-68
2021/12/05 01:46:08;;;;;;;19.05;3.13;;;8.10;99.90;;;;;;4887420;29;20044;-67
2021/12/05 01:49:07;;;;;;;27.65;3.97;;;8.10;99.90;;;;;;4894526;29;20044;-67
2021/12/05 01:55:16;;;;;;;;;;;8.10;99.90;;;;;;4882716;29;20409;-66
2021/12/05 02:10:50;;;;;;;13.27;2.70;;;7.80;99.90;;;;;;4822107;29;20496;-68
2021/12/05 02:16:19;;;;;;;10.27;2.53;;;7.80;99.90;;;;;;4822183;29;20557;-69
2021/12/05 02:30:08;;;;;;;11.05;2.75;;;8.00;99.90;;;;;;4807847;29;20122;-72
2021/12/05 02:32:53;;;;;;;14.35;2.80;;;8.00;99.90;;;;;;4821025;29;20120;-71
2021/12/05 02:43:13;;;;;;;14.45;2.45;;;8.20;99.90;;;;;;4821928;29;20152;-71
2021/12/05 02:45:45;;;;;;;16.27;2.65;;;8.10;99.90;;;;;;4883959;29;20055;-72
2021/12/05 02:48:10;;;;;;;20.63;3.55;;;8.00;99.90;;;;;;4893800;29;20037;-72
2021/12/05 02:50:37;;;;;;;17.15;2.75;;;8.00;99.90;;;;;;4897164;29;20033;-72
2021/12/05 02:53:19;;;;;;;19.33;2.60;;;8.10;99.90;;;;;;4898679;29;20032;-72
2021/12/05 02:55:47;;;;;;;12.27;2.65;;;8.00;99.90;;;;;;4897141;29;20041;-71
2021/12/05 02:58:40;;;;;;;24.80;2.85;;;8.10;99.90;;;;;;4893509;29;20089;-71
2021/12/05 03:01:21;;;;;;;17.05;2.67;;;7.90;99.90;;;;;;4893220;29;20033;-71
2021/12/05 03:03:51;;;;;;;13.55;2.30;;;7.90;99.90;;;;;;4896662;29;20020;-72
2021/12/05 03:06:23;;;;;;;17.25;2.85;;;7.80;99.90;;;;;;4896933;29;20116;-72
2021/12/05 03:08:55;;;;;;;22.00;6.70;;;7.90;99.90;;;;;;4897095;29;20074;-71
2021/12/05 03:11:23;;;;;;;20.02;4.13;;;7.70;99.90;;;;;;4897246;29;20035;-72
2021/12/05 03:13:49;;;;;;;25.42;3.53;;;7.90;99.90;;;;;;4898600;29;20036;-72
2021/12/05 03:16:17;;;;;;;15.35;3.08;;;7.90;99.90;;;;;;4892967;29;20395;-72
2021/12/05 03:18:43;;;;;;;14.70;2.35;;;8.10;99.90;;;;;;4891572;29;20044;-71
2021/12/05 03:21:10;;;;;;;17.05;2.75;;;8.10;99.90;;;;;;4879570;29;20406;-72
2021/12/05 03:23:38;;;;;;;12.13;2.78;;;8.20;99.90;;;;;;4896138;29;20041;-71
2021/12/05 03:26:09;;;;;;;15.02;2.35;;;8.10;99.90;;;;;;4898107;29;20490;-72
2021/12/05 03:28:36;;;;;;;11.93;2.10;;;8.00;99.90;;;;;;4897004;29;20081;-72
2021/12/05 03:31:03;;;;;;;12.95;2.53;;;8.00;99.90;;;;;;4896677;29;20024;-71
2021/12/05 03:33:29;;;;;;;17.40;3.03;;;8.10;99.90;;;;;;4896676;29;20088;-71
2021/12/05 03:35:55;;;;;;;17.02;2.55;;;8.00;99.90;;;;;;4895381;29;20493;-72
2021/12/05 03:38:21;;;;;;;16.13;2.38;;;7.90;99.90;;;;;;4894218;29;20047;-72
2021/12/05 03:40:47;;;;;;;16.15;2.60;;;7.80;99.90;;;;;;4897821;29;20486;-72
2021/12/05 03:43:15;;;;;;;16.63;2.30;;;8.00;99.90;;;;;;4896438;29;20061;-72
2021/12/05 03:45:44;;;;;;;11.65;2.30;;;7.90;99.90;;;;;;4891744;29;20041;-72
2021/12/05 03:48:14;;;;;;;15.52;2.78;;;7.90;99.90;;;;;;4892975;29;20071;-72
2021/12/05 03:50:40;;;;;;;12.68;2.17;;;8.00;99.90;;;;;;4896779;29;20068;-72
2021/12/05 03:53:07;;;;;;;10.88;2.00;;;7.70;99.90;;;;;;4897345;29;20064;-72
2021/12/05 03:55:34;;;;;;;10.60;1.98;;;7.80;99.90;;;;;;4896463;29;20060;-72
2021/12/05 03:58:00;;;;;;;9.20;2.05;;;7.80;99.90;;;;;;4896050;29;20063;-72
2021/12/05 04:00:30;;;;;;;9.32;1.60;;;7.70;99.90;;;;;;4896451;29;20020;-72
2021/12/05 04:02:58;;;;;;;8.35;1.88;;;7.50;99.90;;;;;;4896332;29;20112;-72
2021/12/05 04:05:24;;;;;;;7.70;1.55;;;7.60;99.90;;;;;;4896139;29;20084;-73
2021/12/05 04:07:50;;;;;;;6.55;1.27;;;7.50;99.90;;;;;;4896656;29;20047;-72
2021/12/05 04:10:16;;;;;;;5.38;1.60;;;7.60;99.90;;;;;;4896697;29;20028;-72
2021/12/05 04:12:43;;;;;;;9.73;1.50;;;7.60;99.90;;;;;;4895987;29;20032;-73
2021/12/05 04:15:11;;;;;;;8.95;1.65;;;7.50;99.90;;;;;;4893025;29;20101;-73
2021/12/05 04:17:39;;;;;;;12.40;2.78;;;7.50;99.90;;;;;;4895730;29;20083;-73
2021/12/05 04:20:07;;;;;;;7.47;1.73;;;7.40;99.90;;;;;;4893438;29;20029;-72
2021/12/05 04:22:32;;;;;;;9.10;1.85;;;7.20;99.90;;;;;;4895269;29;20494;-72
2021/12/05 04:25:01;;;;;;;8.10;1.38;;;7.20;99.90;;;;;;4895899;29;20053;-71
2021/12/05 04:27:27;;;;;;;11.80;1.85;;;7.30;99.90;;;;;;4895549;29;20036;-72
2021/12/05 04:29:53;;;;;;;9.07;1.67;;;7.30;99.90;;;;;;4895657;29;20084;-72
2021/12/05 04:32:19;;;;;;;7.20;1.48;;;7.20;99.90;;;;;;4896109;29;20032;-72
2021/12/05 04:34:44;;;;;;;12.20;1.65;;;7.30;99.90;;;;;;4896096;29;20441;-73
2021/12/05 04:37:10;;;;;;;11.65;1.92;;;7.30;99.90;;;;;;4895466;29;20538;-73
2021/12/05 04:39:38;;;;;;;8.38;1.60;;;7.20;99.90;;;;;;4895449;29;20044;-73
2021/12/05 04:42:04;;;;;;;7.57;1.67;;;7.30;99.90;;;;;;4895915;29;20044;-73
2021/12/05 04:44:30;;;;;;;10.38;1.45;;;7.20;99.90;;;;;;4895512;29;20040;-72
2021/12/05 04:46:57;;;;;;;10.60;2.15;;;6.90;99.90;;;;;;4896803;29;20041;-72
2021/12/05 04:49:23;;;;;;;13.40;2.10;;;6.80;99.90;;;;;;4895789;29;20390;-72
2021/12/05 04:51:50;;;;;;;8.88;1.67;;;6.60;99.90;;;;;;4895151;29;20027;-72
2021/12/05 04:54:18;;;;;;;9.02;1.77;;;6.60;99.90;;;;;;4891758;29;20017;-73
2021/12/05 04:56:45;;;;;;;10.82;1.98;;;6.80;99.90;;;;;;4895408;29;20063;-72
2021/12/05 04:59:15;;;;;;;10.13;2.63;;;6.90;99.90;;;;;;4896501;29;20064;-70
2021/12/05 05:01:44;;;;;;;10.73;1.80;;;7.50;99.90;;;;;;4896004;29;20037;-69
2021/12/05 05:04:27;;;;;;;6.22;1.10;;;7.50;99.90;;;;;;4878629;29;20468;-72
2021/12/05 05:06:57;;;;;;;7.50;1.30;;;7.10;99.90;;;;;;4895296;29;20498;-72
2021/12/05 05:09:23;;;;;;;2.83;1.00;;;7.20;99.90;;;;;;4895414;29;20029;-71
2021/12/05 05:11:49;;;;;;;5.90;1.45;;;7.20;99.90;;;;;;4895200;29;20505;-72
2021/12/05 05:14:15;;;;;;;4.60;1.13;;;7.20;99.90;;;;;;4896028;29;20037;-72
2021/12/05 05:16:42;;;;;;;3.63;1.00;;;7.00;99.90;;;;;;4895674;29;20422;-72
2021/12/05 05:19:09;;;;;;;5.63;1.00;;;6.90;99.90;;;;;;4895062;29;20032;-72
2021/12/05 05:21:49;;;;;;;5.82;1.10;;;6.80;99.90;;;;;;4895162;29;20035;-71
2021/12/05 05:43:33;;;;;;;7.97;1.75;;;6.30;99.90;;;;;;4879208;29;20393;-72
2021/12/05 05:50:54;;;;;;;9.75;1.67;;;6.90;99.90;;;;;;4880819;29;20048;-71
2021/12/05 05:53:20;;;;;;;12.82;2.00;;;7.00;99.90;;;;;;4862730;29;20041;-72
2021/12/05 05:55:47;;;;;;;7.90;1.70;;;7.10;99.90;;;;;;4880207;29;20102;-69
2021/12/05 05:58:16;;;;;;;7.18;1.58;;;7.10;99.90;;;;;;4880130;29;20032;-69
2021/12/05 06:01:02;;;;;;;5.85;1.08;;;7.10;99.90;;;;;;4880251;29;20061;-72
2021/12/05 06:03:29;;;;;;;4.78;1.02;;;6.70;99.90;;;;;;4880209;29;20025;-70
2021/12/05 06:06:02;;;;;;;6.45;1.30;;;6.70;99.90;;;;;;4885578;29;20119;-71
2021/12/05 06:08:30;;;;;;;4.50;1.13;;;6.70;99.90;;;;;;4896633;29;20052;-70
2021/12/05 06:10:59;;;;;;;4.05;0.93;;;6.60;99.90;;;;;;4885447;29;20033;-72
2021/12/05 06:13:26;;;;;;;3.03;1.00;;;6.70;99.90;;;;;;4892329;29;20030;-71
2021/12/05 06:15:52;;;;;;;5.47;1.17;;;6.40;99.90;;;;;;4894107;29;20021;-71
2021/12/05 06:18:19;;;;;;;4.55;1.13;;;6.70;99.90;;;;;;4897883;29;20451;-72
2021/12/05 06:20:45;;;;;;;8.48;1.23;;;6.70;99.90;;;;;;4898107;29;20049;-72
2021/12/05 06:23:13;;;;;;;3.85;1.10;;;6.70;99.90;;;;;;4899243;29;20060;-72
2021/12/05 06:25:42;;;;;;;5.20;1.30;;;6.60;99.90;;;;;;4898510;29;20047;-72
2021/12/05 06:28:14;;;;;;;4.95;1.10;;;6.40;99.90;;;;;;4898216;29;20563;-72
2021/12/05 06:31:01;;;;;;;6.68;1.23;;;6.50;99.90;;;;;;4897751;29;20591;-72
2021/12/05 06:46:58;;;;;;;9.68;1.55;;;6.30;99.90;;;;;;4894459;29;20044;-72
2021/12/05 06:49:24;;;;;;;9.68;1.90;;;6.30;99.90;;;;;;4893476;29;20056;-72
2021/12/05 06:51:49;;;;;;;9.18;2.00;;;6.30;99.90;;;;;;4893481;29;20529;-71
2021/12/05 06:54:15;;;;;;;10.82;1.70;;;6.50;99.90;;;;;;4897593;29;20040;-71
2021/12/05 06:56:41;;;;;;;7.78;1.50;;;6.50;99.90;;;;;;4897391;29;20043;-71
2021/12/05 06:59:07;;;;;;;8.40;1.60;;;6.70;99.90;;;;;;4898583;29;20581;-71
2021/12/05 07:01:33;;;;;;;12.80;1.80;;;6.60;99.90;;;;;;4897477;29;20028;-71
2021/12/05 07:04:06;;;;;;;10.32;2.53;;;6.40;99.90;;;;;;4897327;29;20044;-71
2021/12/05 07:06:32;;;;;;;8.20;1.88;;;6.30;99.90;;;;;;4893025;29;20029;-70
2021/12/05 07:09:07;;;;;;;10.05;2.00;;;6.40;99.90;;;;;;4897261;29;20032;-71
2021/12/05 07:11:46;;;;;;;7.88;2.05;;;6.30;99.90;;;;;;4897047;29;20050;-71
2021/12/05 07:16:46;;;;;;;12.10;2.30;;;6.20;99.90;;;;;;4896660;29;20033;-73
2021/12/05 07:22:14;;;;;;;13.18;2.35;;;6.10;99.90;;;;;;4896693;29;20024;-71
2021/12/05 07:40:19;;;;;;;9.32;2.00;;;6.10;99.90;;;;;;4897287;29;20088;-71
2021/12/05 07:40:49;;;;;;;14.57;8.02;;;6.20;99.90;;;;;;4896918;29;20048;-71
2021/12/05 07:43:16;;;;;;;19.15;7.43;;;6.20;99.90;;;;;;4892441;29;20028;-71
2021/12/05 07:45:50;;;;;;;15.32;6.05;;;6.20;99.90;;;;;;4891404;29;20060;-71
2021/12/05 07:48:25;;;;;;;8.95;3.20;;;6.30;99.90;;;;;;4896823;29;20561;-71
2021/12/05 07:53:27;;;;;;;9.07;2.30;;;6.30;99.90;;;;;;4896730;29;20044;-71
2021/12/05 07:55:56;;;;;;;8.45;2.17;;;6.40;99.90;;;;;;4897657;29;20025;-72
2021/12/05 08:15:07;;;;;;;18.98;7.57;;;6.20;99.90;;;;;;4825914;29;20094;-72
2021/12/05 08:17:32;;;;;;;11.43;7.25;;;6.20;99.90;;;;;;4839708;29;20033;-72
2021/12/05 08:19:58;;;;;;;8.77;4.18;;;6.00;99.90;;;;;;4843857;29;20065;-73
2021/12/05 08:22:24;;;;;;;13.48;5.68;;;6.10;99.90;;;;;;4841931;29;20046;-72
2021/12/05 08:24:51;;;;;;;13.05;5.72;;;6.00;99.90;;;;;;4842258;29;20185;-73
2021/12/05 08:27:17;;;;;;;13.23;5.22;;;5.90;99.90;;;;;;4852163;29;20396;-72
2021/12/05 08:35:07;;;;;;;15.38;7.03;;;5.80;99.90;;;;;;4843286;29;20436;-71
2021/12/05 09:21:36;;;;;;;8.98;1.45;;;7.70;99.90;;;;;;4864265;29;20039;-71
2021/12/05 10:06:48;;;;;;;7.47;2.90;;;8.80;99.90;;;;;;4830040;29;20142;-67
2021/12/05 10:14:54;;;;;;;9.48;5.38;;;10.10;99.90;;;;;;4897084;29;20045;-70
2021/12/05 10:34:28;;;;;;;6.97;1.88;;;14.40;99.90;;;;;;4897959;29;20112;-71
2021/12/05 10:37:16;;;;;;;8.57;3.85;;;14.90;99.90;;;;;;4893099;29;20032;-66
2021/12/05 10:39:43;;;;;;;12.77;4.80;;;14.50;99.90;;;;;;4896568;29;20487;-68
2021/12/05 10:42:39;;;;;;;32.53;17.42;;;15.00;99.90;;;;;;4894542;29;20120;-71
2021/12/05 10:45:21;;;;;;;7.88;3.05;;;15.40;99.90;;;;;;4893849;29;20088;-72
2021/12/05 10:47:51;;;;;;;10.15;2.70;;;16.20;99.90;;;;;;4896995;29;20040;-73
2021/12/05 10:50:35;;;;;;;13.30;6.88;;;15.70;99.90;;;;;;4897822;29;20025;-74
2021/12/05 10:53:28;;;;;;;28.15;21.95;;;15.00;99.90;;;;;;4883768;29;20033;-74
2021/12/05 10:56:20;;;;;;;9.82;3.70;;;14.80;99.90;;;;;;4894480;29;20047;-73
2021/12/05 10:58:48;;;;;;;8.30;2.65;;;15.30;99.90;;;;;;4894484;29;20043;-73
2021/12/05 11:01:28;;;;;;;9.00;2.55;;;15.10;99.90;;;;;;4897497;29;20156;-72
2021/12/05 11:04:16;;;;;;;14.10;5.68;;;13.40;99.90;;;;;;4897120;29;20043;-73
2021/12/05 11:06:56;;;;;;;9.82;2.95;;;13.20;99.90;;;;;;4896812;29;20096;-70
2021/12/05 11:09:25;;;;;;;7.82;2.25;;;13.00;99.90;;;;;;4892595;29;20056;-74
2021/12/05 11:12:03;;;;;;;12.65;4.25;;;14.30;99.90;;;;;;4897138;29;20040;-73
2021/12/05 11:14:42;;;;;;;10.90;3.72;;;15.00;99.90;;;;;;4897353;29;20089;-72
2021/12/05 11:17:13;;;;;;;4.80;2.03;;;15.90;99.90;;;;;;4883738;29;20029;-73
2021/12/05 11:19:40;;;;;;;7.65;2.30;;;16.30;99.90;;;;;;4896631;29;20571;-71
2021/12/05 11:22:18;;;;;;;9.07;1.80;;;14.60;99.90;;;;;;4896593;29;20120;-73
2021/12/05 11:25:11;;;;;;;10.50;4.40;;;14.30;99.90;;;;;;4892939;29;20139;-73
2021/12/05 11:27:59;;;;;;;9.60;2.13;;;14.80;99.90;;;;;;4896976;29;20145;-72
2021/12/05 11:30:30;;;;;;;8.32;3.33;;;14.60;99.90;;;;;;4896985;29;20103;-73
2021/12/05 11:33:18;;;;;;;14.93;3.58;;;15.30;99.90;;;;;;4896940;29;20024;-74
2021/12/05 11:35:55;;;;;;;12.48;5.60;;;14.40;99.90;;;;;;4881511;29;20024;-74
2021/12/05 11:38:27;;;;;;;11.95;5.05;;;14.10;99.90;;;;;;4893888;29;20482;-72
2021/12/05 11:41:03;;;;;;;7.85;2.83;;;13.10;99.90;;;;;;4879088;29;20037;-70
2021/12/05 11:43:59;;;;;;;9.73;3.85;;;12.70;99.90;;;;;;4894974;29;20431;-72
2021/12/05 11:46:36;;;;;;;10.45;3.90;;;12.30;99.90;;;;;;4895377;29;20044;-72
2021/12/05 11:49:13;;;;;;;8.77;3.85;;;12.10;99.90;;;;;;4896452;29;20450;-72
2021/12/05 11:51:45;;;;;;;9.93;4.10;;;12.20;99.90;;;;;;4896449;29;20040;-70
2021/12/05 11:54:22;;;;;;;14.73;4.50;;;12.00;99.90;;;;;;4896492;29;20391;-71
2021/12/05 11:56:48;;;;;;;13.77;6.07;;;11.40;99.90;;;;;;4896348;29;20419;-72
2021/12/05 11:59:19;;;;;;;10.00;5.53;;;10.50;99.90;;;;;;4893898;29;20040;-70
2021/12/05 12:01:53;;;;;;;8.02;4.13;;;10.00;99.90;;;;;;4896790;29;20037;-70
2021/12/05 12:04:22;;;;;;;8.77;5.18;;;10.10;99.90;;;;;;4892269;29;20037;-71
2021/12/05 12:07:05;;;;;;;20.55;15.05;;;9.90;99.90;;;;;;4891579;29;20016;-71
2021/12/05 12:09:31;;;;;;;51.60;35.03;;;9.80;99.90;;;;;;4891884;29;20045;-71
2021/12/05 12:11:58;;;;;;;60.78;43.42;;;9.50;99.90;;;;;;4896387;29;20111;-71
2021/12/05 12:14:23;;;;;;;8.65;4.13;;;9.70;99.90;;;;;;4896281;29;20020;-71
2021/12/05 12:16:51;;;;;;;6.25;3.67;;;9.30;99.90;;;;;;4896970;29;20509;-71
2021/12/05 12:19:21;;;;;;;8.45;4.43;;;9.10;99.90;;;;;;4895205;29;20036;-71
2021/12/05 12:21:48;;;;;;;8.57;4.30;;;9.30;99.90;;;;;;4896035;29;20028;-69
2021/12/05 12:24:15;;;;;;;10.15;3.72;;;9.70;99.90;;;;;;4895810;29;20037;-71
2021/12/05 12:26:42;;;;;;;7.90;2.97;;;10.50;99.90;;;;;;4896226;29;20029;-70
2021/12/05 12:29:11;;;;;;;12.52;3.90;;;10.70;99.90;;;;;;4896808;29;20069;-70
2021/12/05 12:31:41;;;;;;;9.70;3.28;;;11.10;99.90;;;;;;4895328;29;20033;-69
2021/12/05 12:34:11;;;;;;;11.60;3.28;;;10.50;99.90;;;;;;4894938;29;20133;-70
2021/12/05 12:36:42;;;;;;;28.20;23.83;;;10.30;99.90;;;;;;4895056;29;20021;-66
2021/12/05 12:39:17;;;;;;;125.60;111.35;;;10.30;99.90;;;;;;4895534;29;20024;-68
2021/12/05 12:42:19;;;;;;;74.07;62.72;;;10.50;99.90;;;;;;4895839;29;20037;-68
2021/12/05 12:45:12;;;;;;;111.05;90.97;;;10.70;99.90;;;;;;4895384;29;20518;-67
2021/12/05 12:47:59;;;;;;;35.35;24.70;;;10.80;99.90;;;;;;4894849;29;20119;-69
2021/12/05 12:50:51;;;;;;;80.03;67.75;;;10.50;99.90;;;;;;4892808;29;20033;-68
2021/12/05 12:53:37;;;;;;;73.50;62.42;;;10.40;99.90;;;;;;4892748;29;20111;-68
2021/12/05 12:56:17;;;;;;;167.65;113.50;;;10.30;99.90;;;;;;4895590;29;20033;-69
2021/12/05 12:58:46;;;;;;;129.52;86.28;;;10.30;99.90;;;;;;4895793;29;20151;-66
2021/12/05 13:12:45;;;;;;;19.83;8.35;;;11.00;99.90;;;;;;4891044;29;20098;-68
2021/12/05 13:15:16;;;;;;;14.48;3.75;;;10.80;99.90;;;;;;4882238;29;20044;-70
2021/12/05 13:17:49;;;;;;;11.73;4.03;;;11.30;99.90;;;;;;4893989;29;20107;-64
2021/12/05 13:20:17;;;;;;;;;;;11.40;99.90;;;;;;4893038;29;20028;-66
2021/12/05 13:23:06;;;;;;;11.95;3.88;;;10.80;99.90;;;;;;4894842;29;19915;-66
2021/12/05 13:25:36;;;;;;;15.93;4.25;;;10.40;99.90;;;;;;4890840;29;20040;-65
2021/12/05 13:28:28;;;;;;;13.00;5.95;;;10.90;99.90;;;;;;4894438;29;20039;-66
2021/12/05 13:30:54;;;;;;;16.00;4.15;;;11.00;99.90;;;;;;4894887;29;20028;-66
2021/12/05 13:33:23;;;;;;;14.90;4.78;;;11.00;99.90;;;;;;4894304;29;20033;-66
2021/12/05 13:35:49;;;;;;;10.32;3.30;;;10.70;99.90;;;;;;4894874;29;20039;-66
2021/12/05 13:38:30;;;;;;;7.30;2.83;;;10.70;99.90;;;;;;4895989;29;20032;-66
2021/12/05 13:41:13;;;;;;;12.10;3.20;;;10.70;99.90;;;;;;4896130;29;20032;-67
2021/12/05 13:43:40;;;;;;;12.50;5.43;;;10.30;99.90;;;;;;4894809;29;20387;-65
2021/12/05 13:46:32;;;;;;;12.07;3.42;;;10.10;99.90;;;;;;4894912;29;20147;-66
2021/12/05 13:49:00;;;;;;;13.65;4.25;;;10.00;99.90;;;;;;4895256;29;20068;-65
2021/12/05 13:51:26;;;;;;;10.40;2.85;;;9.50;99.90;;;;;;4890802;29;20056;-65
2021/12/05 13:53:55;;;;;;;11.43;2.65;;;9.60;99.90;;;;;;4895134;29;20028;-62
2021/12/05 13:56:26;;;;;;;15.52;3.53;;;10.00;99.90;;;;;;4895020;29;20025;-64
2021/12/05 13:58:56;;;;;;;13.93;3.50;;;10.00;99.90;;;;;;4895488;29;20025;-62
2021/12/05 14:01:30;;;;;;;12.43;3.60;;;10.30;99.90;;;;;;4884945;29;20029;-61
2021/12/05 14:03:59;;;;;;;;;;;10.40;99.90;;;;;;4891049;29;20036;-63
2021/12/05 14:06:29;;;;;;;12.02;3.38;;;9.80;99.90;;;;;;4897747;29;19919;-64
2021/12/05 14:09:09;;;;;;;17.15;3.45;;;9.80;99.90;;;;;;4894254;29;20096;-64
2021/12/05 14:11:41;;;;;;;9.88;2.60;;;9.90;99.90;;;;;;4897316;29;20107;-63
2021/12/05 14:14:07;;;;;;;12.88;3.35;;;9.80;99.90;;;;;;4899062;29;20028;-64
2021/12/05 14:16:38;;;;;;;48.72;28.90;;;9.50;99.90;;;;;;4892840;29;20498;-62
2021/12/05 14:19:11;;;;;;;30.45;14.57;;;9.30;99.90;;;;;;4897680;29;20116;-62
2021/12/05 14:21:42;;;;;;;11.43;4.82;;;9.30;99.90;;;;;;4898182;29;20103;-62
2021/12/05 14:24:09;;;;;;;13.63;3.45;;;9.40;99.90;;;;;;4895102;29;20037;-65
2021/12/05 14:26:39;;;;;;;16.80;4.32;;;9.50;99.90;;;;;;4896489;29;20048;-66
2021/12/05 14:29:07;;;;;;;13.38;3.78;;;9.30;99.90;;;;;;4898759;29;20032;-66
2021/12/05 14:31:37;;;;;;;16.88;5.30;;;9.30;99.90;;;;;;4892765;29;20029;-65
2021/12/05 14:34:05;;;;;;;30.83;17.70;;;9.00;99.90;;;;;;4896882;29;20033;-63
2021/12/05 14:36:34;;;;;;;356.98;312.60;;;8.80;99.90;;;;;;4897426;29;20064;-65
2021/12/05 14:39:22;;;;;;;241.57;188.10;;;8.70;99.90;;;;;;4896025;29;20387;-65
2021/12/05 14:41:52;;;;;;;17.70;8.55;;;8.80;99.90;;;;;;4898016;29;20080;-64
2021/12/05 14:44:20;;;;;;;18.13;5.22;;;8.70;99.90;;;;;;4893894;29;20039;-62
2021/12/05 14:47:06;;;;;;;18.95;4.82;;;8.90;99.90;;;;;;4881894;29;20029;-62
2021/12/05 14:49:39;;;;;;;27.17;11.80;;;8.90;99.90;;;;;;4897249;29;20124;-63
2021/12/05 14:52:08;;;;;;;18.00;4.13;;;8.70;99.90;;;;;;4897196;29;20036;-63
2021/12/05 14:54:37;;;;;;;14.90;5.50;;;8.80;99.90;;;;;;4896938;29;20513;-63
2021/12/05 14:57:27;;;;;;;15.18;4.15;;;8.80;99.90;;;;;;4896966;29;20020;-63
2021/12/05 15:00:06;;;;;;;16.42;7.32;;;8.60;99.90;;;;;;4882143;29;20056;-62
2021/12/05 15:02:32;;;;;;;21.70;8.30;;;8.80;99.90;;;;;;4897187;29;20058;-62
2021/12/05 15:04:58;;;;;;;22.83;13.10;;;8.90;99.90;;;;;;4898578;29;20047;-65
2021/12/05 15:07:26;;;;;;;18.42;6.07;;;8.70;99.90;;;;;;4892222;29;20040;-65
2021/12/05 15:09:56;;;;;;;18.20;7.85;;;8.50;99.90;;;;;;4892967;29;20411;-64
2021/12/05 15:12:27;;;;;;;18.25;5.95;;;8.30;99.90;;;;;;4897186;29;20032;-65
2021/12/05 15:14:56;;;;;;;20.30;5.70;;;8.30;99.90;;;;;;4895873;29;20395;-63
2021/12/05 15:17:24;;;;;;;16.13;6.53;;;8.10;99.90;;;;;;4897666;29;20496;-65
2021/12/05 15:19:55;;;;;;;16.98;4.40;;;8.00;99.90;;;;;;4896369;29;20032;-65
2021/12/05 15:22:21;;;;;;;14.40;5.60;;;7.90;99.90;;;;;;4892871;29;20093;-65
2021/12/05 15:24:56;;;;;;;22.20;10.05;;;7.90;99.90;;;;;;4897057;29;20033;-66
2021/12/05 15:27:25;;;;;;;20.00;7.50;;;7.90;99.90;;;;;;4896900;29;20032;-66
2021/12/05 15:30:00;;;;;;;21.40;8.57;;;7.90;99.90;;;;;;4896609;29;20402;-66
2021/12/05 15:32:29;;;;;;;26.38;12.40;;;7.90;99.90;;;;;;4896764;29;20027;-65
2021/12/05 15:35:25;;;;;;;16.85;4.05;;;7.70;99.90;;;;;;4898328;29;20107;-65
2021/12/05 15:37:51;;;;;;;54.38;34.63;;;7.70;99.90;;;;;;4889125;29;20044;-66
2021/12/05 15:40:17;;;;;;;23.92;7.35;;;8.00;99.90;;;;;;4896582;29;20529;-64
2021/12/05 15:42:43;;;;;;;32.28;15.88;;;8.10;99.90;;;;;;4896286;29;20035;-67
2021/12/05 15:45:12;;;;;;;54.05;25.70;;;8.00;99.90;;;;;;4893561;29;20053;-65
2021/12/05 15:47:39;;;;;;;21.15;6.05;;;8.00;99.90;;;;;;4894739;29;20044;-64
2021/12/05 15:50:09;;;;;;;21.80;4.93;;;8.10;99.90;;;;;;4896756;29;20076;-66
2021/12/05 15:52:45;;;;;;;34.75;15.23;;;7.90;99.90;;;;;;4895213;29;20036;-66
2021/12/05 15:55:36;;;;;;;22.58;5.63;;;8.00;99.90;;;;;;4895250;29;20051;-66
2021/12/05 15:58:23;;;;;;;28.50;6.30;;;7.90;99.90;;;;;;4890532;29;20040;-65
2021/12/05 16:00:54;;;;;;;27.92;9.82;;;7.90;99.90;;;;;;4891269;29;20035;-65
2021/12/05 16:03:24;;;;;;;101.50;81.60;;;7.90;99.90;;;;;;4894963;29;20044;-66
2021/12/05 16:06:00;;;;;;;35.92;18.77;;;8.00;99.90;;;;;;4880537;29;20129;-68
2021/12/05 16:08:31;;;;;;;28.35;12.88;;;8.00;99.90;;;;;;4894912;29;20447;-66
2021/12/05 16:10:59;;;;;;;26.88;8.23;;;7.80;99.90;;;;;;4896443;29;20028;-68
2021/12/05 16:13:38;;;;;;;34.42;8.98;;;7.80;99.90;;;;;;4894389;29;20044;-68
2021/12/05 16:16:24;;;;;;;30.50;6.80;;;7.70;99.90;;;;;;4894882;29;20406;-70
2021/12/05 16:18:53;;;;;;;30.20;6.22;;;7.60;99.90;;;;;;4894798;29;20123;-69
2021/12/05 16:21:22;;;;;;;29.50;7.10;;;7.50;99.90;;;;;;4893266;29;20173;-68
2021/12/05 16:23:49;;;;;;;30.30;7.45;;;7.60;99.90;;;;;;4889462;29;20031;-67
2021/12/05 16:26:27;;;;;;;32.38;6.55;;;7.60;99.90;;;;;;4888749;29;20111;-66
2021/12/05 16:29:05;;;;;;;33.92;5.72;;;7.60;99.90;;;;;;4889879;29;20100;-67
2021/12/05 16:31:38;;;;;;;33.72;8.40;;;7.50;99.90;;;;;;4885709;29;20423;-65
2021/12/05 16:34:08;;;;;;;26.00;6.07;;;7.50;99.90;;;;;;4892098;29;20510;-66
2021/12/05 16:36:56;;;;;;;24.83;6.18;;;7.60;99.90;;;;;;4890711;29;20372;-65
2021/12/05 16:39:37;;;;;;;38.47;10.48;;;7.80;99.90;;;;;;4890999;29;20033;-66
2021/12/05 16:42:08;;;;;;;38.13;12.40;;;7.90;99.90;;;;;;4894908;29;20576;-66
2021/12/05 16:44:40;;;;;;;23.67;8.10;;;8.00;99.90;;;;;;4839377;29;1627024;-65
2021/12/05 16:47:22;;;;;;;31.92;9.88;;;8.10;99.90;;;;;;4896090;29;20047;-66
2021/12/05 16:49:50;;;;;;;22.08;5.75;;;8.30;99.90;;;;;;4895804;29;20132;-65
2021/12/05 16:52:20;;;;;;;18.08;4.60;;;8.20;99.90;;;;;;4895079;29;20033;-65
2021/12/05 16:55:03;;;;;;;27.55;6.65;;;8.20;99.90;;;;;;4894355;29;20097;-65
2021/12/05 16:57:41;;;;;;;24.52;5.72;;;8.10;99.90;;;;;;4895369;29;20029;-65
2021/12/05 17:00:22;;;;;;;27.58;7.93;;;8.20;99.90;;;;;;4895830;29;20383;-65
2021/12/05 17:02:53;;;;;;;19.10;6.50;;;8.10;99.90;;;;;;4895740;29;20025;-63
2021/12/05 17:05:26;;;;;;;17.00;3.78;;;8.10;99.90;;;;;;4892425;29;20506;-63
2021/12/05 17:10:27;;;;;;;19.17;4.88;;;7.80;99.90;;;;;;4894911;29;20762;-66
2021/12/05 17:12:58;;;;;;;15.10;3.40;;;7.60;99.90;;;;;;4895414;29;20047;-65
2021/12/05 17:15:29;;;;;;;17.05;4.13;;;7.70;99.90;;;;;;4894820;29;20032;-65
2021/12/05 17:18:02;;;;;;;18.80;4.22;;;7.60;99.90;;;;;;4894407;29;20028;-65
2021/12/05 17:20:32;;;;;;;19.73;5.15;;;7.40;99.90;;;;;;4892711;29;20024;-65
2021/12/05 17:23:04;;;;;;;17.50;4.40;;;7.40;99.90;;;;;;4881524;29;20033;-66
2021/12/05 17:25:44;;;;;;;16.38;5.80;;;7.60;99.90;;;;;;4892730;29;20085;-66
2021/12/05 17:28:29;;;;;;;20.80;5.25;;;7.90;99.90;;;;;;4890469;29;20048;-66
2021/12/05 17:30:58;;;;;;;25.45;7.03;;;8.00;99.90;;;;;;4890584;29;20112;-64
2021/12/05 17:33:39;;;;;;;27.65;9.77;;;8.00;99.90;;;;;;4894918;29;20529;-65
2021/12/05 17:36:13;;;;;;;45.55;26.17;;;7.80;99.90;;;;;;4895412;29;20502;-65
2021/12/05 17:38:39;;;;;;;28.42;7.32;;;7.70;99.90;;;;;;4896338;29;20462;-66
2021/12/05 17:41:05;;;;;;;25.77;9.30;;;7.60;99.90;;;;;;4898852;29;20025;-66
2021/12/05 17:43:31;;;;;;;32.92;11.50;;;7.50;99.90;;;;;;4880847;29;20371;-66
2021/12/05 17:45:57;;;;;;;30.60;12.90;;;7.30;99.90;;;;;;4893671;29;20050;-66
2021/12/05 17:48:23;;;;;;;25.63;7.00;;;7.20;99.90;;;;;;4898655;29;20506;-69
2021/12/05 17:50:53;;;;;;;26.35;7.63;;;7.20;99.90;;;;;;4897800;29;20040;-67
2021/12/05 17:53:20;;;;;;;23.42;6.00;;;7.20;99.90;;;;;;4876257;29;20025;-68
2021/12/05 17:55:48;;;;;;;25.02;7.05;;;7.40;99.90;;;;;;4898867;29;20028;-67
2021/12/05 17:58:39;;;;;;;30.05;11.80;;;7.60;99.90;;;;;;4893873;29;20037;-67
2021/12/05 18:03:55;;;;;;;21.73;6.13;;;7.60;99.90;;;;;;4897928;29;20089;-67
2021/12/05 18:06:22;;;;;;;37.72;13.23;;;7.70;99.90;;;;;;4897782;29;20486;-68
2021/12/05 18:08:48;;;;;;;43.47;17.90;;;7.70;99.90;;;;;;4882267;29;20104;-66
2021/12/05 18:11:20;;;;;;;30.92;5.72;;;7.80;99.90;;;;;;4898856;29;20033;-67
2021/12/05 18:13:51;;;;;;;28.27;12.13;;;8.00;99.90;;;;;;4898619;29;20455;-67
2021/12/05 18:16:23;;;;;;;19.10;5.18;;;8.10;99.90;;;;;;4897743;29;20047;-68
2021/12/05 18:18:51;;;;;;;21.85;5.05;;;8.10;99.90;;;;;;4897801;29;20039;-65
2021/12/05 18:21:18;;;;;;;25.80;5.97;;;7.80;99.90;;;;;;4897633;29;20406;-67
2021/12/05 18:23:45;;;;;;;17.58;6.40;;;7.80;99.90;;;;;;4897460;29;20096;-68
2021/12/05 18:26:11;;;;;;;24.25;4.63;;;7.70;99.90;;;;;;4899116;29;20036;-67
2021/12/05 18:28:41;;;;;;;19.83;4.00;;;7.70;99.90;;;;;;4893816;29;20096;-67
2021/12/05 18:31:16;;;;;;;14.48;3.13;;;7.80;99.90;;;;;;4897483;29;20071;-68
2021/12/05 18:33:42;;;;;;;21.88;5.40;;;7.90;99.90;;;;;;4893689;29;20064;-68
2021/12/05 18:36:08;;;;;;;27.95;5.03;;;7.60;99.90;;;;;;4896822;29;20029;-66